Time;durP1;ratioP1;P1;durP2;ratioP2;P2;SDS_P1;SDS_P2;PMS_P1;PMS_P2;Temp;Humidity;BMP_temperature;BMP_pressure;BME280_temperature;BME280_humidity;BME280_pressure;Samples;Min_cycle;Max_cycle;Signal;HPM_P1;HPM_P2
2023/11/29 00:01:35;;;;;;;26.60;11.17;;;;;;;;;;768199;180;761379;-62
2023/11/29 00:04:01;;;;;;;22.08;11.57;;;;;;;;;;763371;181;916656;-65
2023/11/29 00:06:27;;;;;;;18.87;10.73;;;;;;;;;;776901;180;915600;-64
2023/11/29 00:08:57;;;;;;;17.73;8.90;;;;;;;;;;774089;180;922199;-65
2023/11/29 00:11:19;;;;;;;22.52;11.95;;;;;;;;;;770077;178;918601;-62
2023/11/29 00:13:45;;;;;;;19.13;10.17;;;;;;;;;;776727;180;918545;-66
2023/11/29 00:16:11;;;;;;;16.17;7.47;;;;;;;;;;772596;181;915821;-64
2023/11/29 00:18:37;;;;;;;16.33;9.17;;;;;;;;;;773183;179;915567;-62
2023/11/29 00:21:02;;;;;;;21.08;9.00;;;;;;;;;;776921;180;1017825;-64
2023/11/29 00:23:30;;;;;;;15.03;8.37;;;;;;;;;;774950;180;819143;-65
2023/11/29 00:25:54;;;;;;;20.27;9.10;;;;;;;;;;775120;177;936519;-62
2023/11/29 00:28:20;;;;;;;22.17;7.43;;;;;;;;;;771413;177;847093;-63
2023/11/29 00:30:46;;;;;;;17.83;8.47;;;;;;;;;;770216;181;918341;-62
2023/11/29 00:33:12;;;;;;;20.03;10.13;;;;;;;;;;772271;180;919116;-63
2023/11/29 00:35:38;;;;;;;23.63;11.47;;;;;;;;;;776431;180;918491;-63
2023/11/29 00:38:03;;;;;;;17.77;9.73;;;;;;;;;;778093;180;918842;-66
2023/11/29 00:40:29;;;;;;;16.93;11.00;;;;;;;;;;772654;180;937967;-62
2023/11/29 00:42:55;;;;;;;24.07;11.67;;;;;;;;;;772455;180;886038;-65
2023/11/29 00:45:21;;;;;;;19.37;10.80;;;;;;;;;;779214;180;844279;-63
2023/11/29 00:47:47;;;;;;;31.03;12.80;;;;;;;;;;770029;180;919682;-62
2023/11/29 00:50:13;;;;;;;20.30;12.17;;;;;;;;;;774326;180;905001;-66
2023/11/29 00:52:38;;;;;;;24.60;12.03;;;;;;;;;;779110;180;919567;-66
2023/11/29 00:55:05;;;;;;;23.13;11.10;;;;;;;;;;769718;180;918941;-64
2023/11/29 00:57:30;;;;;;;24.70;11.70;;;;;;;;;;765184;178;915133;-64
2023/11/29 00:59:56;;;;;;;22.27;11.55;;;;;;;;;;767319;180;945599;-66
2023/11/29 01:02:22;;;;;;;23.67;12.80;;;;;;;;;;772976;180;1014523;-63
2023/11/29 01:04:48;;;;;;;20.60;11.47;;;;;;;;;;769907;180;912677;-63
2023/11/29 01:07:14;;;;;;;21.33;11.53;;;;;;;;;;769686;176;912141;-65
2023/11/29 01:09:40;;;;;;;19.97;11.87;;;;;;;;;;766668;181;917178;-64
2023/11/29 01:12:06;;;;;;;23.70;13.73;;;;;;;;;;765917;180;918377;-63
2023/11/29 01:14:31;;;;;;;24.50;13.30;;;;;;;;;;775042;178;918834;-64
2023/11/29 01:16:57;;;;;;;20.87;12.13;;;;;;;;;;778134;177;915612;-66
2023/11/29 01:19:23;;;;;;;22.60;12.37;;;;;;;;;;772893;180;918837;-67
2023/11/29 01:21:49;;;;;;;26.73;14.40;;;;;;;;;;770052;180;919798;-63
2023/11/29 01:24:15;;;;;;;27.83;14.60;;;;;;;;;;773648;178;917637;-66
2023/11/29 01:26:41;;;;;;;26.87;13.30;;;;;;;;;;772070;181;918923;-64
2023/11/29 01:29:06;;;;;;;23.93;13.90;;;;;;;;;;770848;180;908822;-63
2023/11/29 01:31:32;;;;;;;22.80;12.97;;;;;;;;;;772846;180;917864;-66
2023/11/29 01:33:58;;;;;;;28.33;13.90;;;;;;;;;;780438;179;921844;-67
2023/11/29 01:36:24;;;;;;;26.00;14.10;;;;;;;;;;772053;180;918934;-66
2023/11/29 01:38:51;;;;;;;25.35;14.07;;;;;;;;;;775708;178;918969;-66
2023/11/29 01:41:17;;;;;;;25.43;15.03;;;;;;;;;;774459;179;917602;-64
2023/11/29 01:43:43;;;;;;;24.50;14.43;;;;;;;;;;773463;178;915215;-64
2023/11/29 01:46:08;;;;;;;30.40;14.83;;;;;;;;;;774119;177;918693;-64
2023/11/29 01:48:34;;;;;;;26.90;14.32;;;;;;;;;;765900;181;922940;-64
2023/11/29 01:51:00;;;;;;;29.67;15.60;;;;;;;;;;767333;180;984145;-65
2023/11/29 01:53:27;;;;;;;33.10;17.60;;;;;;;;;;766992;180;918632;-67
2023/11/29 01:55:53;;;;;;;28.50;14.93;;;;;;;;;;772585;178;918713;-66
2023/11/29 01:58:19;;;;;;;27.57;14.77;;;;;;;;;;779698;179;952880;-64
2023/11/29 02:00:45;;;;;;;27.93;15.20;;;;;;;;;;774379;178;919130;-66
2023/11/29 02:03:12;;;;;;;26.60;12.80;;;;;;;;;;770812;177;811969;-64
2023/11/29 02:05:37;;;;;;;25.00;13.00;;;;;;;;;;768406;181;926968;-68
2023/11/29 02:08:03;;;;;;;25.50;14.43;;;;;;;;;;763637;180;918719;-65
2023/11/29 02:10:29;;;;;;;20.73;12.97;;;;;;;;;;774064;180;919548;-69
2023/11/29 02:12:55;;;;;;;24.83;12.27;;;;;;;;;;778549;179;862310;-68
2023/11/29 02:15:20;;;;;;;20.30;11.43;;;;;;;;;;773899;177;910490;-67
2023/11/29 02:17:46;;;;;;;28.43;14.53;;;;;;;;;;770818;180;935317;-65
2023/11/29 02:20:13;;;;;;;29.63;14.27;;;;;;;;;;773001;180;1021980;-66
2023/11/29 02:22:39;;;;;;;21.13;12.70;;;;;;;;;;775421;180;820293;-65
2023/11/29 02:25:05;;;;;;;28.40;15.63;;;;;;;;;;771442;177;919648;-66
2023/11/29 02:27:31;;;;;;;24.05;13.68;;;;;;;;;;768494;180;918490;-67
2023/11/29 02:29:56;;;;;;;25.53;13.80;;;;;;;;;;779529;178;917675;-66
2023/11/29 02:32:22;;;;;;;22.93;12.20;;;;;;;;;;769879;180;894770;-65
2023/11/29 02:34:48;;;;;;;28.27;15.73;;;;;;;;;;767154;180;918636;-66
2023/11/29 02:37:14;;;;;;;29.90;14.50;;;;;;;;;;776976;180;922007;-66
2023/11/29 02:39:40;;;;;;;26.33;12.93;;;;;;;;;;774992;177;917434;-67
2023/11/29 02:42:06;;;;;;;27.45;13.00;;;;;;;;;;773848;177;919250;-66
2023/11/29 02:44:32;;;;;;;22.37;13.67;;;;;;;;;;770446;180;919266;-67
2023/11/29 02:46:57;;;;;;;27.97;14.07;;;;;;;;;;770803;180;917746;-66
2023/11/29 02:49:24;;;;;;;28.17;15.07;;;;;;;;;;766356;181;938296;-66
2023/11/29 02:51:50;;;;;;;27.70;14.30;;;;;;;;;;773852;177;919751;-66
2023/11/29 02:54:17;;;;;;;31.30;14.90;;;;;;;;;;776217;181;819661;-65
2023/11/29 02:56:42;;;;;;;23.80;13.10;;;;;;;;;;771696;180;1020484;-65
2023/11/29 02:59:08;;;;;;;28.95;14.50;;;;;;;;;;773703;178;908527;-66
2023/11/29 03:01:33;;;;;;;26.67;12.93;;;;;;;;;;780781;180;814810;-66
2023/11/29 03:03:59;;;;;;;25.13;13.87;;;;;;;;;;774414;178;1024474;-66
2023/11/29 03:06:25;;;;;;;28.17;13.53;;;;;;;;;;765082;180;1834437;-66
2023/11/29 03:08:51;;;;;;;26.93;13.90;;;;;;;;;;779164;180;918742;-64
2023/11/29 03:11:17;;;;;;;21.60;12.17;;;;;;;;;;773530;178;919169;-65
2023/11/29 03:13:43;;;;;;;29.90;13.73;;;;;;;;;;770808;180;872174;-66
2023/11/29 03:16:08;;;;;;;31.83;16.67;;;;;;;;;;775760;180;887127;-67
2023/11/29 03:18:34;;;;;;;24.13;13.70;;;;;;;;;;779280;180;885000;-67
2023/11/29 03:21:00;;;;;;;24.40;13.07;;;;;;;;;;770770;179;885801;-67
2023/11/29 03:23:26;;;;;;;29.77;15.37;;;;;;;;;;756463;181;918226;-67
2023/11/29 03:25:52;;;;;;;32.00;14.48;;;;;;;;;;777347;181;918847;-67
2023/11/29 03:28:18;;;;;;;25.10;13.47;;;;;;;;;;774540;180;919767;-66
2023/11/29 03:30:44;;;;;;;28.75;14.38;;;;;;;;;;771555;180;917547;-66
2023/11/29 03:33:09;;;;;;;32.63;16.50;;;;;;;;;;777142;180;818007;-66
2023/11/29 03:35:35;;;;;;;28.13;14.10;;;;;;;;;;770722;180;815689;-66
2023/11/29 03:38:01;;;;;;;29.20;15.30;;;;;;;;;;772975;180;916926;-67
2023/11/29 03:40:27;;;;;;;26.13;14.37;;;;;;;;;;768125;180;919488;-67
2023/11/29 03:42:53;;;;;;;29.90;16.17;;;;;;;;;;771415;180;919340;-66
2023/11/29 03:45:19;;;;;;;24.20;13.03;;;;;;;;;;773380;180;918296;-67
2023/11/29 03:47:44;;;;;;;29.08;12.98;;;;;;;;;;770816;178;917410;-68
2023/11/29 03:50:10;;;;;;;30.57;13.97;;;;;;;;;;773756;177;808935;-66
2023/11/29 03:52:36;;;;;;;29.23;13.73;;;;;;;;;;761031;181;819958;-67
2023/11/29 03:55:02;;;;;;;25.10;12.90;;;;;;;;;;772215;180;918556;-66
2023/11/29 03:57:28;;;;;;;24.63;13.05;;;;;;;;;;771218;179;816414;-67
2023/11/29 03:59:54;;;;;;;25.00;14.20;;;;;;;;;;773840;178;917608;-68
2023/11/29 04:02:19;;;;;;;26.10;14.17;;;;;;;;;;775658;179;939411;-66
2023/11/29 04:04:45;;;;;;;28.03;12.77;;;;;;;;;;777722;180;919614;-66
2023/11/29 04:07:12;;;;;;;25.70;15.05;;;;;;;;;;774671;177;912986;-67
2023/11/29 04:09:37;;;;;;;31.57;14.17;;;;;;;;;;771948;180;920210;-67
2023/11/29 04:12:03;;;;;;;24.73;12.33;;;;;;;;;;775310;179;918278;-67
2023/11/29 04:14:29;;;;;;;27.50;14.27;;;;;;;;;;775760;180;919720;-67
2023/11/29 04:16:55;;;;;;;24.10;13.33;;;;;;;;;;771043;177;1020447;-67
2023/11/29 04:19:20;;;;;;;25.40;13.10;;;;;;;;;;771668;181;1020716;-67
2023/11/29 04:21:46;;;;;;;27.63;15.40;;;;;;;;;;776736;178;918155;-68
2023/11/29 04:24:12;;;;;;;30.37;14.70;;;;;;;;;;770219;181;923243;-68
2023/11/29 04:26:38;;;;;;;22.23;12.23;;;;;;;;;;773274;180;919153;-68
2023/11/29 04:29:04;;;;;;;29.03;13.20;;;;;;;;;;778918;180;820047;-66
2023/11/29 04:31:30;;;;;;;27.70;14.10;;;;;;;;;;774870;180;816536;-69
2023/11/29 04:33:56;;;;;;;28.63;14.43;;;;;;;;;;771742;180;919516;-69
2023/11/29 04:36:22;;;;;;;29.92;12.77;;;;;;;;;;770761;180;919673;-69
2023/11/29 04:38:49;;;;;;;28.60;14.87;;;;;;;;;;771299;181;630022;-68
2023/11/29 04:41:16;;;;;;;24.47;12.27;;;;;;;;;;775635;180;819337;-67
2023/11/29 04:43:41;;;;;;;24.77;12.35;;;;;;;;;;771529;180;920030;-68
2023/11/29 04:46:07;;;;;;;23.67;12.83;;;;;;;;;;776333;180;917328;-67
2023/11/29 04:48:33;;;;;;;27.10;14.10;;;;;;;;;;771850;180;937980;-68
2023/11/29 04:50:59;;;;;;;21.57;12.10;;;;;;;;;;766485;180;916265;-68
2023/11/29 04:53:25;;;;;;;26.47;13.07;;;;;;;;;;777546;180;919762;-67
2023/11/29 04:55:52;;;;;;;29.73;15.17;;;;;;;;;;770740;180;918764;-68
2023/11/29 04:58:16;;;;;;;30.53;13.93;;;;;;;;;;772635;180;918412;-70
2023/11/29 05:00:42;;;;;;;28.57;14.70;;;;;;;;;;776799;181;1033793;-67
2023/11/29 05:03:08;;;;;;;25.20;12.70;;;;;;;;;;772206;180;925129;-70
2023/11/29 05:05:34;;;;;;;25.80;12.83;;;;;;;;;;773714;180;817350;-69
2023/11/29 05:08:00;;;;;;;28.90;14.27;;;;;;;;;;775599;179;915333;-67
2023/11/29 05:10:26;;;;;;;39.20;14.63;;;;;;;;;;781056;180;867039;-68
2023/11/29 05:12:52;;;;;;;28.13;15.97;;;;;;;;;;773421;180;911454;-70
2023/11/29 05:15:17;;;;;;;30.37;14.60;;;;;;;;;;774012;177;914161;-69
2023/11/29 05:17:43;;;;;;;32.90;16.30;;;;;;;;;;778833;180;849387;-67
2023/11/29 05:20:09;;;;;;;33.33;15.40;;;;;;;;;;775971;177;915502;-68
2023/11/29 05:22:35;;;;;;;25.60;14.03;;;;;;;;;;758299;183;920408;-69
2023/11/29 05:25:01;;;;;;;27.17;14.30;;;;;;;;;;778766;181;818903;-69
2023/11/29 05:27:27;;;;;;;31.23;13.13;;;;;;;;;;772320;180;919352;-67
2023/11/29 05:29:53;;;;;;;30.43;14.67;;;;;;;;;;772996;179;917589;-67
2023/11/29 05:32:19;;;;;;;30.63;16.10;;;;;;;;;;769395;180;815402;-67
2023/11/29 05:34:45;;;;;;;22.93;12.27;;;;;;;;;;776992;180;625592;-69
2023/11/29 05:37:11;;;;;;;31.10;14.83;;;;;;;;;;769066;180;1029620;-71
2023/11/29 05:39:36;;;;;;;29.77;16.17;;;;;;;;;;776430;178;619562;-69
2023/11/29 05:42:04;;;;;;;30.27;15.13;;;;;;;;;;781620;180;920134;-69
2023/11/29 05:44:31;;;;;;;33.57;15.97;;;;;;;;;;775993;178;645087;-69
2023/11/29 05:46:56;;;;;;;31.50;16.87;;;;;;;;;;776151;180;917982;-70
2023/11/29 05:49:22;;;;;;;35.47;16.43;;;;;;;;;;781996;178;636188;-67
2023/11/29 05:51:48;;;;;;;29.37;16.87;;;;;;;;;;777699;180;626334;-68
2023/11/29 05:54:14;;;;;;;30.30;17.73;;;;;;;;;;763051;181;713193;-70
2023/11/29 05:56:40;;;;;;;34.30;17.30;;;;;;;;;;774753;180;632969;-68
2023/11/29 05:59:06;;;;;;;40.37;18.93;;;;;;;;;;779092;177;633147;-68
2023/11/29 06:01:32;;;;;;;38.63;18.17;;;;;;;;;;770207;178;919202;-68
2023/11/29 06:03:57;;;;;;;43.30;20.30;;;;;;;;;;771087;178;913543;-68
2023/11/29 06:06:23;;;;;;;39.63;18.43;;;;;;;;;;777107;180;916279;-68
2023/11/29 06:08:50;;;;;;;39.63;17.10;;;;;;;;;;759637;182;919046;-68
2023/11/29 06:11:15;;;;;;;35.30;18.30;;;;;;;;;;763666;180;919146;-69
2023/11/29 06:13:41;;;;;;;31.60;15.60;;;;;;;;;;774387;180;1123051;-67
2023/11/29 06:16:08;;;;;;;37.50;17.83;;;;;;;;;;769898;180;918356;-68
2023/11/29 06:18:34;;;;;;;36.65;18.02;;;;;;;;;;774206;179;1046923;-67
2023/11/29 06:20:59;;;;;;;34.47;15.63;;;;;;;;;;762887;183;921822;-68
2023/11/29 06:23:25;;;;;;;39.83;18.47;;;;;;;;;;761781;181;919078;-67
2023/11/29 06:25:51;;;;;;;42.83;19.50;;;;;;;;;;773742;180;819075;-68
2023/11/29 06:28:17;;;;;;;45.87;19.30;;;;;;;;;;771512;180;919063;-66
2023/11/29 06:30:43;;;;;;;33.45;17.45;;;;;;;;;;773603;178;918732;-68
2023/11/29 06:33:09;;;;;;;32.97;18.07;;;;;;;;;;771036;180;918190;-66
2023/11/29 06:35:35;;;;;;;37.25;18.70;;;;;;;;;;772982;180;918453;-68
2023/11/29 06:38:01;;;;;;;33.97;18.12;;;;;;;;;;775673;180;918333;-67
2023/11/29 06:40:27;;;;;;;38.93;18.63;;;;;;;;;;769795;177;1020899;-67
2023/11/29 06:42:53;;;;;;;51.60;20.13;;;;;;;;;;770985;180;918514;-68
2023/11/29 06:45:19;;;;;;;39.50;19.43;;;;;;;;;;779353;180;918991;-69
2023/11/29 06:47:46;;;;;;;36.40;19.20;;;;;;;;;;774159;178;815282;-69
2023/11/29 06:50:13;;;;;;;41.50;19.03;;;;;;;;;;767857;180;919189;-68
2023/11/29 06:52:38;;;;;;;41.13;18.40;;;;;;;;;;769578;180;933387;-69
2023/11/29 06:55:03;;;;;;;39.77;20.57;;;;;;;;;;778103;180;918727;-68
2023/11/29 06:57:30;;;;;;;42.03;19.83;;;;;;;;;;774680;180;1118262;-68
2023/11/29 06:59:55;;;;;;;46.03;19.93;;;;;;;;;;771451;180;918954;-68
2023/11/29 07:02:21;;;;;;;42.67;19.73;;;;;;;;;;779454;180;923873;-66
2023/11/29 07:04:48;;;;;;;38.40;19.60;;;;;;;;;;762931;180;919139;-67
2023/11/29 07:07:13;;;;;;;48.47;21.33;;;;;;;;;;770945;181;817345;-67
2023/11/29 07:09:38;;;;;;;52.90;22.95;;;;;;;;;;775279;178;839136;-69
2023/11/29 07:12:05;;;;;;;48.53;22.63;;;;;;;;;;773098;177;900423;-69
2023/11/29 07:14:31;;;;;;;38.87;20.33;;;;;;;;;;765633;180;807970;-69
2023/11/29 07:16:56;;;;;;;51.23;22.70;;;;;;;;;;767759;177;917067;-69
2023/11/29 07:19:23;;;;;;;50.20;24.83;;;;;;;;;;772577;177;967210;-67
2023/11/29 07:21:48;;;;;;;52.50;24.23;;;;;;;;;;773715;178;871145;-67
2023/11/29 07:24:14;;;;;;;56.93;28.27;;;;;;;;;;770987;180;918686;-69
2023/11/29 07:26:40;;;;;;;48.80;24.60;;;;;;;;;;773860;181;922052;-67
2023/11/29 07:29:06;;;;;;;41.07;20.40;;;;;;;;;;771321;177;915474;-69
2023/11/29 07:31:34;;;;;;;43.80;24.20;;;;;;;;;;775922;178;893635;-67
2023/11/29 07:33:59;;;;;;;48.87;26.13;;;;;;;;;;775528;180;809556;-70
2023/11/29 07:36:25;;;;;;;56.00;26.67;;;;;;;;;;774647;180;914322;-69
2023/11/29 07:38:51;;;;;;;51.20;25.60;;;;;;;;;;773861;179;906207;-69
2023/11/29 07:41:17;;;;;;;48.13;23.70;;;;;;;;;;775201;180;914013;-69
2023/11/29 07:43:42;;;;;;;51.83;28.50;;;;;;;;;;776147;180;815134;-69
2023/11/29 07:46:09;;;;;;;53.10;30.73;;;;;;;;;;775423;180;912595;-69
2023/11/29 07:48:34;;;;;;;54.22;26.90;;;;;;;;;;763551;180;919908;-70
2023/11/29 07:51:00;;;;;;;44.57;25.00;;;;;;;;;;777271;179;910391;-68
2023/11/29 07:53:26;;;;;;;50.83;27.25;;;;;;;;;;774853;180;914688;-69
2023/11/29 07:55:52;;;;;;;51.43;25.83;;;;;;;;;;772891;180;842695;-69
2023/11/29 07:58:18;;;;;;;54.37;27.90;;;;;;;;;;766040;184;913052;-70
2023/11/29 08:00:43;;;;;;;51.33;26.30;;;;;;;;;;774129;180;811515;-69
2023/11/29 08:03:10;;;;;;;57.37;27.87;;;;;;;;;;773146;181;917352;-69
2023/11/29 08:05:35;;;;;;;44.67;24.07;;;;;;;;;;776040;179;898046;-70
2023/11/29 08:08:02;;;;;;;47.70;25.23;;;;;;;;;;770769;180;1020684;-70
2023/11/29 08:10:29;;;;;;;51.70;23.40;;;;;;;;;;773721;179;919334;-69
2023/11/29 08:12:53;;;;;;;42.10;20.60;;;;;;;;;;760253;183;915243;-69
2023/11/29 08:15:19;;;;;;;50.97;25.20;;;;;;;;;;774797;177;919007;-69
2023/11/29 08:17:45;;;;;;;46.77;23.77;;;;;;;;;;768222;178;922416;-72
2023/11/29 08:20:10;;;;;;;54.80;26.17;;;;;;;;;;773023;180;917614;-70
2023/11/29 08:22:36;;;;;;;44.23;23.73;;;;;;;;;;778961;177;915477;-70
2023/11/29 08:25:03;;;;;;;52.22;25.45;;;;;;;;;;762324;181;861817;-69
2023/11/29 08:27:28;;;;;;;51.63;25.30;;;;;;;;;;769790;181;900476;-68
2023/11/29 08:29:54;;;;;;;42.97;23.97;;;;;;;;;;778925;178;813186;-69
2023/11/29 08:32:20;;;;;;;46.47;25.95;;;;;;;;;;774796;177;918818;-70
2023/11/29 08:34:46;;;;;;;46.60;25.43;;;;;;;;;;773830;180;919432;-68
2023/11/29 08:37:11;;;;;;;45.47;22.77;;;;;;;;;;773033;180;918405;-69
2023/11/29 08:39:37;;;;;;;45.67;24.20;;;;;;;;;;776432;180;819190;-69
2023/11/29 08:42:03;;;;;;;45.65;23.33;;;;;;;;;;774409;179;919263;-72
2023/11/29 08:44:29;;;;;;;43.30;22.37;;;;;;;;;;777422;177;812258;-71
2023/11/29 08:46:55;;;;;;;48.20;24.23;;;;;;;;;;780134;179;894606;-68
2023/11/29 08:49:21;;;;;;;39.37;19.83;;;;;;;;;;775027;179;816668;-67
2023/11/29 08:51:47;;;;;;;47.80;24.70;;;;;;;;;;769237;180;917403;-68
2023/11/29 08:54:13;;;;;;;47.50;25.87;;;;;;;;;;780538;180;914020;-69
2023/11/29 08:56:38;;;;;;;45.87;23.80;;;;;;;;;;772705;180;909007;-69
2023/11/29 08:59:04;;;;;;;45.00;24.50;;;;;;;;;;773744;180;907762;-69
2023/11/29 09:01:32;;;;;;;44.87;20.90;;;;;;;;;;777674;180;918745;-70
2023/11/29 09:03:58;;;;;;;42.90;20.30;;;;;;;;;;765868;177;912269;-69
2023/11/29 09:06:23;;;;;;;42.57;20.23;;;;;;;;;;764076;181;919999;-69
2023/11/29 09:08:50;;;;;;;45.03;24.25;;;;;;;;;;773388;178;913317;-73
2023/11/29 09:11:15;;;;;;;41.20;20.50;;;;;;;;;;777473;180;920205;-74
2023/11/29 09:13:41;;;;;;;41.92;20.58;;;;;;;;;;758105;183;912128;-73
2023/11/29 09:16:08;;;;;;;33.77;18.73;;;;;;;;;;766155;180;818167;-66
2023/11/29 09:18:33;;;;;;;38.77;22.47;;;;;;;;;;779186;179;914350;-68
2023/11/29 09:21:00;;;;;;;40.07;21.27;;;;;;;;;;769466;180;942360;-68
2023/11/29 09:23:26;;;;;;;43.75;21.17;;;;;;;;;;771632;178;922140;-72
2023/11/29 09:25:51;;;;;;;42.90;21.63;;;;;;;;;;778680;180;919678;-72
2023/11/29 09:28:17;;;;;;;34.07;17.67;;;;;;;;;;773065;180;917490;-69
2023/11/29 09:30:44;;;;;;;38.50;19.53;;;;;;;;;;771427;180;919821;-68
2023/11/29 09:33:09;;;;;;;37.60;18.33;;;;;;;;;;772674;180;919517;-68
2023/11/29 09:35:35;;;;;;;31.00;16.60;;;;;;;;;;776807;180;817456;-70
2023/11/29 09:38:01;;;;;;;30.97;16.53;;;;;;;;;;769271;180;1019905;-69
2023/11/29 09:40:26;;;;;;;30.70;16.48;;;;;;;;;;772084;180;920902;-68
2023/11/29 09:42:52;;;;;;;35.43;17.50;;;;;;;;;;771104;180;916290;-69
2023/11/29 09:45:24;;;;;;;32.77;16.23;;;;;;;;;;775269;180;918502;-67
2023/11/29 09:47:49;;;;;;;27.50;16.43;;;;;;;;;;772424;177;920061;-67
2023/11/29 09:50:17;;;;;;;33.17;16.20;;;;;;;;;;771922;181;905586;-65
2023/11/29 09:52:41;;;;;;;28.17;15.90;;;;;;;;;;770393;180;918814;-65
2023/11/29 09:55:07;;;;;;;36.13;17.43;;;;;;;;;;775226;180;926446;-67
2023/11/29 09:57:33;;;;;;;27.47;15.70;;;;;;;;;;773504;178;941020;-65
2023/11/29 09:59:58;;;;;;;29.10;15.13;;;;;;;;;;780895;177;918839;-66
2023/11/29 10:02:24;;;;;;;29.75;15.15;;;;;;;;;;775800;180;920890;-63
2023/11/29 10:04:50;;;;;;;25.57;14.07;;;;;;;;;;773922;180;1034278;-67
2023/11/29 10:07:16;;;;;;;26.25;15.43;;;;;;;;;;775433;177;878585;-68
2023/11/29 10:09:42;;;;;;;35.30;15.60;;;;;;;;;;774180;177;916147;-64
2023/11/29 10:12:08;;;;;;;30.87;15.17;;;;;;;;;;776735;178;816799;-67
2023/11/29 10:14:36;;;;;;;28.67;15.63;;;;;;;;;;770679;178;1088678;-65
2023/11/29 10:17:02;;;;;;;27.63;15.30;;;;;;;;;;771071;180;924081;-65
2023/11/29 10:19:29;;;;;;;32.92;17.80;;;;;;;;;;767608;181;918849;-66
2023/11/29 10:21:54;;;;;;;25.50;15.33;;;;;;;;;;773582;180;920706;-66
2023/11/29 10:24:23;;;;;;;35.57;14.80;;;;;;;;;;779110;180;916279;-65
2023/11/29 10:26:49;;;;;;;32.20;16.03;;;;;;;;;;768918;178;919125;-66
2023/11/29 10:29:14;;;;;;;24.77;15.83;;;;;;;;;;772993;178;910600;-66
2023/11/29 10:31:40;;;;;;;27.20;13.83;;;;;;;;;;777006;177;821127;-67
2023/11/29 10:34:06;;;;;;;27.87;14.50;;;;;;;;;;769452;180;913086;-67
2023/11/29 10:36:32;;;;;;;25.30;15.13;;;;;;;;;;774491;177;810696;-66
2023/11/29 10:39:04;;;;;;;34.60;15.10;;;;;;;;;;774169;177;917255;-67
2023/11/29 10:41:30;;;;;;;22.80;13.88;;;;;;;;;;777759;180;912342;-66
2023/11/29 10:43:56;;;;;;;27.30;14.40;;;;;;;;;;770491;180;917118;-68
2023/11/29 10:46:22;;;;;;;25.25;13.45;;;;;;;;;;771099;181;903034;-66
2023/11/29 10:48:50;;;;;;;29.20;15.87;;;;;;;;;;778689;180;918329;-67
2023/11/29 10:51:18;;;;;;;22.70;12.33;;;;;;;;;;769428;181;918148;-67
2023/11/29 10:53:41;;;;;;;22.47;13.27;;;;;;;;;;771726;180;917082;-65
2023/11/29 10:56:07;;;;;;;31.80;14.30;;;;;;;;;;775148;179;932156;-67
2023/11/29 10:58:34;;;;;;;26.77;13.90;;;;;;;;;;779250;179;917345;-66
2023/11/29 11:01:00;;;;;;;23.38;12.43;;;;;;;;;;774833;177;853001;-67
2023/11/29 11:03:32;;;;;;;24.80;12.20;;;;;;;;;;772637;180;919905;-68
2023/11/29 11:06:15;;;;;;;20.30;11.53;;;;;;;;;;782402;179;817284;-67
2023/11/29 11:08:41;;;;;;;23.10;12.07;;;;;;;;;;775018;177;832558;-66
2023/11/29 11:11:07;;;;;;;23.67;13.10;;;;;;;;;;774857;181;817010;-66
2023/11/29 11:13:34;;;;;;;26.33;13.17;;;;;;;;;;772735;179;919170;-67
2023/11/29 11:15:59;;;;;;;25.40;13.90;;;;;;;;;;772076;180;817164;-66
2023/11/29 11:18:25;;;;;;;26.03;13.80;;;;;;;;;;778053;181;915256;-67
2023/11/29 11:20:51;;;;;;;24.03;12.70;;;;;;;;;;774479;177;861473;-67
2023/11/29 11:23:17;;;;;;;23.77;13.80;;;;;;;;;;774366;178;831260;-66
2023/11/29 11:25:42;;;;;;;26.50;12.50;;;;;;;;;;777420;180;919570;-66
2023/11/29 11:28:08;;;;;;;26.40;14.43;;;;;;;;;;773130;177;917805;-67
2023/11/29 11:30:34;;;;;;;27.50;13.80;;;;;;;;;;768994;180;919049;-65
2023/11/29 11:33:01;;;;;;;27.50;13.83;;;;;;;;;;780052;180;816008;-65
2023/11/29 11:35:30;;;;;;;27.23;13.90;;;;;;;;;;770846;180;1020066;-65
2023/11/29 11:37:56;;;;;;;34.33;16.37;;;;;;;;;;774518;180;815510;-68
2023/11/29 11:40:23;;;;;;;26.03;14.33;;;;;;;;;;773324;178;919043;-65
2023/11/29 11:42:49;;;;;;;32.63;14.80;;;;;;;;;;777904;181;826017;-65
2023/11/29 11:45:15;;;;;;;27.27;15.13;;;;;;;;;;773803;180;902548;-68
2023/11/29 11:47:42;;;;;;;25.27;14.00;;;;;;;;;;769157;180;921791;-67
2023/11/29 11:50:06;;;;;;;23.50;14.17;;;;;;;;;;773004;178;833148;-67
2023/11/29 11:52:32;;;;;;;20.17;12.57;;;;;;;;;;772878;180;916287;-65
2023/11/29 11:55:01;;;;;;;25.55;13.50;;;;;;;;;;773135;178;913629;-66
2023/11/29 11:57:27;;;;;;;24.97;13.70;;;;;;;;;;765933;177;948301;-65
2023/11/29 11:59:54;;;;;;;28.80;14.97;;;;;;;;;;769049;177;916416;-63
2023/11/29 12:02:18;;;;;;;26.47;14.10;;;;;;;;;;775241;177;817253;-65
2023/11/29 12:04:44;;;;;;;22.77;13.30;;;;;;;;;;773425;181;918862;-65
2023/11/29 12:07:10;;;;;;;23.83;14.33;;;;;;;;;;777318;180;918462;-66
2023/11/29 12:09:36;;;;;;;26.77;14.07;;;;;;;;;;770082;180;919418;-65
2023/11/29 12:12:14;;;;;;;26.73;11.97;;;;;;;;;;772583;178;915563;-66
2023/11/29 12:14:41;;;;;;;23.20;11.70;;;;;;;;;;771781;178;918482;-66
2023/11/29 12:17:07;;;;;;;18.90;10.73;;;;;;;;;;765076;181;725918;-66
2023/11/29 12:19:33;;;;;;;22.83;13.43;;;;;;;;;;772732;180;1021767;-64
2023/11/29 12:21:59;;;;;;;23.40;11.20;;;;;;;;;;771619;180;918774;-63
2023/11/29 12:24:24;;;;;;;17.53;11.20;;;;;;;;;;776373;180;919161;-65
2023/11/29 12:26:54;;;;;;;18.93;11.03;;;;;;;;;;774208;180;914786;-65
2023/11/29 12:29:18;;;;;;;18.10;9.97;;;;;;;;;;772933;180;919304;-66
2023/11/29 12:31:44;;;;;;;17.87;9.13;;;;;;;;;;765759;177;868021;-64
2023/11/29 12:34:10;;;;;;;24.80;12.10;;;;;;;;;;767314;181;918380;-64
2023/11/29 12:36:36;;;;;;;20.70;11.10;;;;;;;;;;772210;180;920357;-64
2023/11/29 12:39:02;;;;;;;24.60;11.60;;;;;;;;;;774039;178;906369;-63
2023/11/29 12:41:27;;;;;;;22.80;11.07;;;;;;;;;;779856;180;917563;-64
2023/11/29 12:43:53;;;;;;;22.20;12.20;;;;;;;;;;771511;179;918462;-65
2023/11/29 12:46:19;;;;;;;31.73;14.83;;;;;;;;;;760796;183;920066;-65
2023/11/29 12:48:45;;;;;;;20.53;12.03;;;;;;;;;;775947;181;916607;-66
2023/11/29 12:51:14;;;;;;;19.07;10.57;;;;;;;;;;774942;180;918774;-65
2023/11/29 12:53:37;;;;;;;21.23;12.30;;;;;;;;;;773512;178;919158;-65
2023/11/29 12:56:02;;;;;;;18.50;9.47;;;;;;;;;;772622;177;913817;-64
2023/11/29 12:58:28;;;;;;;19.23;10.20;;;;;;;;;;776008;180;814454;-64
2023/11/29 13:00:54;;;;;;;13.60;8.37;;;;;;;;;;770665;179;931656;-64
2023/11/29 13:03:20;;;;;;;19.33;10.63;;;;;;;;;;771950;180;929682;-63
2023/11/29 13:05:46;;;;;;;16.70;9.27;;;;;;;;;;777816;180;919527;-65
2023/11/29 13:08:12;;;;;;;14.37;8.40;;;;;;;;;;763965;180;922614;-66
2023/11/29 13:10:38;;;;;;;20.73;10.17;;;;;;;;;;771290;180;945184;-66
2023/11/29 13:13:03;;;;;;;17.85;10.43;;;;;;;;;;775087;180;918730;-65
2023/11/29 13:15:29;;;;;;;21.07;12.13;;;;;;;;;;773171;178;919429;-64
2023/11/29 13:17:55;;;;;;;18.83;10.23;;;;;;;;;;772823;180;918741;-64
2023/11/29 13:20:21;;;;;;;23.20;11.50;;;;;;;;;;777551;180;918021;-65
2023/11/29 13:22:47;;;;;;;20.75;11.38;;;;;;;;;;765831;180;886939;-64
2023/11/29 13:25:13;;;;;;;18.77;10.10;;;;;;;;;;767714;181;918758;-63
2023/11/29 13:27:38;;;;;;;24.67;12.17;;;;;;;;;;771496;179;817508;-65
2023/11/29 13:30:05;;;;;;;22.33;12.93;;;;;;;;;;776575;179;925972;-65
2023/11/29 13:32:31;;;;;;;24.03;12.03;;;;;;;;;;766522;179;918685;-65
2023/11/29 13:34:56;;;;;;;24.33;10.90;;;;;;;;;;771636;181;825680;-65
2023/11/29 13:37:22;;;;;;;22.93;11.23;;;;;;;;;;770098;181;919444;-65
2023/11/29 13:39:48;;;;;;;21.13;11.07;;;;;;;;;;762729;179;921147;-65
2023/11/29 13:42:14;;;;;;;21.73;11.23;;;;;;;;;;762799;181;921179;-65
2023/11/29 13:44:40;;;;;;;19.07;10.77;;;;;;;;;;774231;178;820520;-65
2023/11/29 13:47:06;;;;;;;23.33;12.53;;;;;;;;;;767564;179;915065;-65
2023/11/29 13:49:31;;;;;;;22.97;11.90;;;;;;;;;;760936;180;919222;-65
2023/11/29 13:51:57;;;;;;;22.70;10.20;;;;;;;;;;766898;181;1018638;-65
2023/11/29 13:54:24;;;;;;;32.55;11.45;;;;;;;;;;770168;180;919145;-65
2023/11/29 13:56:49;;;;;;;21.97;12.13;;;;;;;;;;768469;178;920154;-65